sensor_id;sensor_type;location;lat;lon;timestamp;P1;durP1;ratioP1;P2;durP2;ratioP2
9904;SDS011;4991;43.566;27.820;2023-06-26T00:01:17;0.83;;;0.83;;
9904;SDS011;4991;43.566;27.820;2023-06-26T00:03:46;0.30;;;0.30;;
9904;SDS011;4991;43.566;27.820;2023-06-26T00:06:12;0.30;;;0.30;;
9904;SDS011;4991;43.566;27.820;2023-06-26T00:08:39;0.30;;;0.30;;
9904;SDS011;4991;43.566;27.820;2023-06-26T00:11:05;0.30;;;0.30;;
9904;SDS011;4991;43.566;27.820;2023-06-26T00:13:31;0.30;;;0.30;;
9904;SDS011;4991;43.566;27.820;2023-06-26T00:15:56;0.30;;;0.30;;
9904;SDS011;4991;43.566;27.820;2023-06-26T00:18:22;0.30;;;0.30;;
9904;SDS011;4991;43.566;27.820;2023-06-26T00:20:48;0.30;;;0.30;;
9904;SDS011;4991;43.566;27.820;2023-06-26T00:23:16;0.30;;;0.30;;
9904;SDS011;4991;43.566;27.820;2023-06-26T00:25:42;0.30;;;0.30;;
9904;SDS011;4991;43.566;27.820;2023-06-26T00:28:09;0.30;;;0.30;;
9904;SDS011;4991;43.566;27.820;2023-06-26T00:30:34;0.30;;;0.30;;
9904;SDS011;4991;43.566;27.820;2023-06-26T00:33:00;0.30;;;0.30;;
9904;SDS011;4991;43.566;27.820;2023-06-26T00:35:26;0.30;;;0.30;;
9904;SDS011;4991;43.566;27.820;2023-06-26T00:37:52;0.87;;;0.87;;
9904;SDS011;4991;43.566;27.820;2023-06-26T00:40:17;0.30;;;0.30;;
9904;SDS011;4991;43.566;27.820;2023-06-26T00:42:43;0.30;;;0.30;;
9904;SDS011;4991;43.566;27.820;2023-06-26T00:45:09;0.30;;;0.30;;
9904;SDS011;4991;43.566;27.820;2023-06-26T00:47:34;0.30;;;0.30;;
9904;SDS011;4991;43.566;27.820;2023-06-26T00:50:00;0.30;;;0.30;;
9904;SDS011;4991;43.566;27.820;2023-06-26T00:52:26;0.30;;;0.30;;
9904;SDS011;4991;43.566;27.820;2023-06-26T00:54:52;0.37;;;0.37;;
9904;SDS011;4991;43.566;27.820;2023-06-26T00:57:18;0.47;;;0.47;;
9904;SDS011;4991;43.566;27.820;2023-06-26T00:59:44;0.30;;;0.30;;
9904;SDS011;4991;43.566;27.820;2023-06-26T01:02:09;0.30;;;0.30;;
9904;SDS011;4991;43.566;27.820;2023-06-26T01:04:35;0.40;;;0.40;;
9904;SDS011;4991;43.566;27.820;2023-06-26T01:07:01;0.30;;;0.30;;
9904;SDS011;4991;43.566;27.820;2023-06-26T01:09:28;1.90;;;1.80;;
9904;SDS011;4991;43.566;27.820;2023-06-26T01:11:54;0.30;;;0.30;;
9904;SDS011;4991;43.566;27.820;2023-06-26T01:14:20;0.30;;;0.30;;
9904;SDS011;4991;43.566;27.820;2023-06-26T01:16:46;0.30;;;0.30;;
9904;SDS011;4991;43.566;27.820;2023-06-26T01:19:23;0.30;;;0.30;;
9904;SDS011;4991;43.566;27.820;2023-06-26T01:22:38;0.30;;;0.30;;
9904;SDS011;4991;43.566;27.820;2023-06-26T01:24:59;0.30;;;0.30;;
9904;SDS011;4991;43.566;27.820;2023-06-26T01:27:34;0.30;;;0.30;;
9904;SDS011;4991;43.566;27.820;2023-06-26T01:30:01;0.40;;;0.40;;
9904;SDS011;4991;43.566;27.820;2023-06-26T01:32:29;0.30;;;0.30;;
9904;SDS011;4991;43.566;27.820;2023-06-26T01:34:56;0.60;;;0.60;;
9904;SDS011;4991;43.566;27.820;2023-06-26T01:37:22;0.40;;;0.40;;
9904;SDS011;4991;43.566;27.820;2023-06-26T01:39:48;0.30;;;0.30;;
9904;SDS011;4991;43.566;27.820;2023-06-26T01:42:14;0.30;;;0.30;;
9904;SDS011;4991;43.566;27.820;2023-06-26T01:44:41;0.40;;;0.40;;
9904;SDS011;4991;43.566;27.820;2023-06-26T01:47:10;0.30;;;0.30;;
9904;SDS011;4991;43.566;27.820;2023-06-26T01:49:52;0.30;;;0.30;;
9904;SDS011;4991;43.566;27.820;2023-06-26T01:52:46;0.30;;;0.30;;
9904;SDS011;4991;43.566;27.820;2023-06-26T01:55:28;2.40;;;2.30;;
9904;SDS011;4991;43.566;27.820;2023-06-26T01:58:02;0.30;;;0.30;;
9904;SDS011;4991;43.566;27.820;2023-06-26T02:00:28;0.40;;;0.40;;
9904;SDS011;4991;43.566;27.820;2023-06-26T02:02:54;0.40;;;0.40;;
9904;SDS011;4991;43.566;27.820;2023-06-26T02:05:20;0.30;;;0.30;;
9904;SDS011;4991;43.566;27.820;2023-06-26T02:07:46;0.30;;;0.30;;
9904;SDS011;4991;43.566;27.820;2023-06-26T02:10:11;1.33;;;1.23;;
9904;SDS011;4991;43.566;27.820;2023-06-26T02:12:37;0.40;;;0.40;;
9904;SDS011;4991;43.566;27.820;2023-06-26T02:15:04;0.30;;;0.30;;
9904;SDS011;4991;43.566;27.820;2023-06-26T02:17:30;0.30;;;0.30;;
9904;SDS011;4991;43.566;27.820;2023-06-26T02:19:56;0.37;;;0.37;;
9904;SDS011;4991;43.566;27.820;2023-06-26T02:22:21;0.43;;;0.43;;
9904;SDS011;4991;43.566;27.820;2023-06-26T02:24:47;0.30;;;0.30;;
9904;SDS011;4991;43.566;27.820;2023-06-26T02:27:13;0.30;;;0.30;;
9904;SDS011;4991;43.566;27.820;2023-06-26T02:29:39;0.30;;;0.30;;
9904;SDS011;4991;43.566;27.820;2023-06-26T02:32:05;0.30;;;0.30;;
9904;SDS011;4991;43.566;27.820;2023-06-26T02:34:31;0.30;;;0.30;;
9904;SDS011;4991;43.566;27.820;2023-06-26T02:36:57;0.30;;;0.30;;
9904;SDS011;4991;43.566;27.820;2023-06-26T02:39:23;0.30;;;0.30;;
9904;SDS011;4991;43.566;27.820;2023-06-26T02:41:49;0.40;;;0.40;;
9904;SDS011;4991;43.566;27.820;2023-06-26T02:44:14;0.30;;;0.30;;
9904;SDS011;4991;43.566;27.820;2023-06-26T02:46:40;0.40;;;0.40;;
9904;SDS011;4991;43.566;27.820;2023-06-26T02:49:06;0.30;;;0.30;;
9904;SDS011;4991;43.566;27.820;2023-06-26T02:51:32;0.30;;;0.30;;
9904;SDS011;4991;43.566;27.820;2023-06-26T02:53:58;0.30;;;0.30;;
9904;SDS011;4991;43.566;27.820;2023-06-26T02:56:24;0.33;;;0.33;;
9904;SDS011;4991;43.566;27.820;2023-06-26T02:58:54;0.33;;;0.33;;
9904;SDS011;4991;43.566;27.820;2023-06-26T03:01:20;0.40;;;0.40;;
9904;SDS011;4991;43.566;27.820;2023-06-26T03:03:46;1.53;;;1.43;;
9904;SDS011;4991;43.566;27.820;2023-06-26T03:06:12;0.57;;;0.57;;
9904;SDS011;4991;43.566;27.820;2023-06-26T03:08:38;0.70;;;0.70;;
9904;SDS011;4991;43.566;27.820;2023-06-26T03:11:05;0.40;;;0.40;;
9904;SDS011;4991;43.566;27.820;2023-06-26T03:13:32;0.30;;;0.30;;
9904;SDS011;4991;43.566;27.820;2023-06-26T03:15:58;0.50;;;0.50;;
9904;SDS011;4991;43.566;27.820;2023-06-26T03:18:23;0.30;;;0.30;;
9904;SDS011;4991;43.566;27.820;2023-06-26T03:20:49;0.50;;;0.50;;
9904;SDS011;4991;43.566;27.820;2023-06-26T03:23:15;1.10;;;0.97;;
9904;SDS011;4991;43.566;27.820;2023-06-26T03:25:40;0.30;;;0.30;;
9904;SDS011;4991;43.566;27.820;2023-06-26T03:28:06;0.40;;;0.40;;
9904;SDS011;4991;43.566;27.820;2023-06-26T03:30:31;0.30;;;0.30;;
9904;SDS011;4991;43.566;27.820;2023-06-26T03:32:57;0.30;;;0.30;;
9904;SDS011;4991;43.566;27.820;2023-06-26T03:35:23;0.87;;;0.87;;
9904;SDS011;4991;43.566;27.820;2023-06-26T03:37:49;0.30;;;0.30;;
9904;SDS011;4991;43.566;27.820;2023-06-26T03:40:15;0.37;;;0.37;;
9904;SDS011;4991;43.566;27.820;2023-06-26T03:42:42;0.30;;;0.30;;
9904;SDS011;4991;43.566;27.820;2023-06-26T03:45:08;0.30;;;0.30;;
9904;SDS011;4991;43.566;27.820;2023-06-26T03:47:33;0.50;;;0.50;;
9904;SDS011;4991;43.566;27.820;2023-06-26T03:49:59;0.30;;;0.30;;
9904;SDS011;4991;43.566;27.820;2023-06-26T03:52:25;0.30;;;0.30;;
9904;SDS011;4991;43.566;27.820;2023-06-26T03:54:50;0.30;;;0.30;;
9904;SDS011;4991;43.566;27.820;2023-06-26T03:57:16;0.37;;;0.37;;
9904;SDS011;4991;43.566;27.820;2023-06-26T03:59:42;0.50;;;0.50;;
9904;SDS011;4991;43.566;27.820;2023-06-26T04:02:07;0.30;;;0.30;;
9904;SDS011;4991;43.566;27.820;2023-06-26T04:04:33;0.30;;;0.30;;
9904;SDS011;4991;43.566;27.820;2023-06-26T04:06:58;0.30;;;0.30;;
9904;SDS011;4991;43.566;27.820;2023-06-26T04:09:24;0.30;;;0.30;;
9904;SDS011;4991;43.566;27.820;2023-06-26T04:11:51;0.30;;;0.30;;
9904;SDS011;4991;43.566;27.820;2023-06-26T04:14:17;0.30;;;0.30;;
9904;SDS011;4991;43.566;27.820;2023-06-26T04:16:43;0.30;;;0.30;;
9904;SDS011;4991;43.566;27.820;2023-06-26T04:19:09;0.30;;;0.30;;
9904;SDS011;4991;43.566;27.820;2023-06-26T04:21:35;0.50;;;0.50;;
9904;SDS011;4991;43.566;27.820;2023-06-26T04:24:01;0.30;;;0.30;;
9904;SDS011;4991;43.566;27.820;2023-06-26T04:26:26;4.00;;;3.67;;
9904;SDS011;4991;43.566;27.820;2023-06-26T04:28:53;11.70;;;10.50;;
9904;SDS011;4991;43.566;27.820;2023-06-26T04:31:19;14.30;;;11.70;;
9904;SDS011;4991;43.566;27.820;2023-06-26T04:33:45;13.60;;;11.67;;
9904;SDS011;4991;43.566;27.820;2023-06-26T04:36:15;15.57;;;12.77;;
9904;SDS011;4991;43.566;27.820;2023-06-26T04:38:44;15.93;;;14.10;;
9904;SDS011;4991;43.566;27.820;2023-06-26T04:41:09;31.00;;;16.00;;
9904;SDS011;4991;43.566;27.820;2023-06-26T04:43:35;16.80;;;14.77;;
9904;SDS011;4991;43.566;27.820;2023-06-26T04:46:02;23.87;;;17.83;;
9904;SDS011;4991;43.566;27.820;2023-06-26T04:48:28;20.93;;;17.10;;
9904;SDS011;4991;43.566;27.820;2023-06-26T04:50:54;21.23;;;17.50;;
9904;SDS011;4991;43.566;27.820;2023-06-26T04:53:21;23.53;;;17.60;;
9904;SDS011;4991;43.566;27.820;2023-06-26T04:55:48;21.43;;;18.30;;
9904;SDS011;4991;43.566;27.820;2023-06-26T04:58:15;20.03;;;17.87;;
9904;SDS011;4991;43.566;27.820;2023-06-26T05:00:41;22.97;;;18.93;;
9904;SDS011;4991;43.566;27.820;2023-06-26T05:03:11;25.57;;;20.60;;
9904;SDS011;4991;43.566;27.820;2023-06-26T05:05:38;24.73;;;19.80;;
9904;SDS011;4991;43.566;27.820;2023-06-26T05:10:41;26.93;;;23.47;;
9904;SDS011;4991;43.566;27.820;2023-06-26T05:13:07;25.20;;;21.80;;
9904;SDS011;4991;43.566;27.820;2023-06-26T05:15:33;26.33;;;21.00;;
9904;SDS011;4991;43.566;27.820;2023-06-26T05:17:59;28.87;;;22.63;;
9904;SDS011;4991;43.566;27.820;2023-06-26T05:20:24;26.17;;;22.50;;
9904;SDS011;4991;43.566;27.820;2023-06-26T05:22:50;26.13;;;21.23;;
9904;SDS011;4991;43.566;27.820;2023-06-26T05:25:16;24.83;;;21.00;;
9904;SDS011;4991;43.566;27.820;2023-06-26T05:27:46;24.40;;;19.57;;
9904;SDS011;4991;43.566;27.820;2023-06-26T05:30:14;24.30;;;19.63;;
9904;SDS011;4991;43.566;27.820;2023-06-26T05:32:40;24.13;;;19.87;;
9904;SDS011;4991;43.566;27.820;2023-06-26T05:35:06;20.83;;;18.50;;
9904;SDS011;4991;43.566;27.820;2023-06-26T05:37:32;21.63;;;16.00;;
9904;SDS011;4991;43.566;27.820;2023-06-26T05:40:00;20.47;;;18.00;;
9904;SDS011;4991;43.566;27.820;2023-06-26T05:42:26;23.70;;;19.47;;
9904;SDS011;4991;43.566;27.820;2023-06-26T05:44:53;22.97;;;18.60;;
9904;SDS011;4991;43.566;27.820;2023-06-26T05:47:18;22.30;;;18.27;;
9904;SDS011;4991;43.566;27.820;2023-06-26T05:49:44;21.10;;;18.70;;
9904;SDS011;4991;43.566;27.820;2023-06-26T05:52:10;20.03;;;15.90;;
9904;SDS011;4991;43.566;27.820;2023-06-26T05:54:37;20.40;;;18.27;;
9904;SDS011;4991;43.566;27.820;2023-06-26T05:57:02;19.80;;;17.17;;
9904;SDS011;4991;43.566;27.820;2023-06-26T05:59:29;20.30;;;15.83;;
9904;SDS011;4991;43.566;27.820;2023-06-26T06:01:57;21.33;;;15.43;;
9904;SDS011;4991;43.566;27.820;2023-06-26T06:04:22;19.33;;;16.40;;
9904;SDS011;4991;43.566;27.820;2023-06-26T06:06:48;18.07;;;16.27;;
9904;SDS011;4991;43.566;27.820;2023-06-26T06:09:14;21.43;;;18.00;;
9904;SDS011;4991;43.566;27.820;2023-06-26T06:11:39;16.57;;;14.83;;
9904;SDS011;4991;43.566;27.820;2023-06-26T06:14:05;20.23;;;16.63;;
9904;SDS011;4991;43.566;27.820;2023-06-26T06:16:31;19.47;;;17.43;;
9904;SDS011;4991;43.566;27.820;2023-06-26T06:18:57;18.47;;;16.47;;
9904;SDS011;4991;43.566;27.820;2023-06-26T06:21:22;14.70;;;13.17;;
9904;SDS011;4991;43.566;27.820;2023-06-26T06:23:48;18.17;;;15.33;;
9904;SDS011;4991;43.566;27.820;2023-06-26T06:26:13;17.07;;;15.33;;
9904;SDS011;4991;43.566;27.820;2023-06-26T06:28:39;19.00;;;14.87;;
9904;SDS011;4991;43.566;27.820;2023-06-26T06:31:05;16.47;;;12.80;;
9904;SDS011;4991;43.566;27.820;2023-06-26T06:33:30;13.07;;;11.43;;
9904;SDS011;4991;43.566;27.820;2023-06-26T06:35:56;13.50;;;11.47;;
9904;SDS011;4991;43.566;27.820;2023-06-26T06:38:22;14.47;;;11.73;;
9904;SDS011;4991;43.566;27.820;2023-06-26T06:40:48;10.37;;;9.37;;
9904;SDS011;4991;43.566;27.820;2023-06-26T06:43:13;12.00;;;9.50;;
9904;SDS011;4991;43.566;27.820;2023-06-26T06:45:39;13.03;;;10.83;;
9904;SDS011;4991;43.566;27.820;2023-06-26T06:48:05;12.60;;;11.33;;
9904;SDS011;4991;43.566;27.820;2023-06-26T06:50:31;12.70;;;11.40;;
9904;SDS011;4991;43.566;27.820;2023-06-26T06:52:56;12.10;;;10.50;;
9904;SDS011;4991;43.566;27.820;2023-06-26T06:55:22;13.80;;;9.70;;
9904;SDS011;4991;43.566;27.820;2023-06-26T06:57:49;17.47;;;10.37;;
9904;SDS011;4991;43.566;27.820;2023-06-26T07:00:15;10.03;;;9.03;;
9904;SDS011;4991;43.566;27.820;2023-06-26T07:02:44;13.73;;;9.57;;
9904;SDS011;4991;43.566;27.820;2023-06-26T07:05:12;9.93;;;8.87;;
9904;SDS011;4991;43.566;27.820;2023-06-26T07:07:38;10.03;;;8.97;;
9904;SDS011;4991;43.566;27.820;2023-06-26T07:10:05;11.10;;;8.80;;
9904;SDS011;4991;43.566;27.820;2023-06-26T07:12:34;13.02;;;8.50;;
9904;SDS011;4991;43.566;27.820;2023-06-26T07:15:00;10.52;;;9.13;;
9904;SDS011;4991;43.566;27.820;2023-06-26T07:17:27;10.70;;;8.47;;
9904;SDS011;4991;43.566;27.820;2023-06-26T07:19:54;11.95;;;9.90;;
9904;SDS011;4991;43.566;27.820;2023-06-26T07:22:20;13.27;;;8.70;;
9904;SDS011;4991;43.566;27.820;2023-06-26T07:24:46;10.68;;;8.57;;
9904;SDS011;4991;43.566;27.820;2023-06-26T07:27:15;10.05;;;8.68;;
9904;SDS011;4991;43.566;27.820;2023-06-26T07:29:42;8.75;;;7.53;;
9904;SDS011;4991;43.566;27.820;2023-06-26T07:32:08;10.43;;;7.83;;
9904;SDS011;4991;43.566;27.820;2023-06-26T07:34:33;11.60;;;8.30;;
9904;SDS011;4991;43.566;27.820;2023-06-26T07:37:00;9.48;;;7.72;;
9904;SDS011;4991;43.566;27.820;2023-06-26T07:39:26;9.68;;;7.40;;
9904;SDS011;4991;43.566;27.820;2023-06-26T07:41:52;11.80;;;8.38;;
9904;SDS011;4991;43.566;27.820;2023-06-26T07:44:17;8.10;;;7.35;;
9904;SDS011;4991;43.566;27.820;2023-06-26T07:46:43;15.00;;;9.38;;
9904;SDS011;4991;43.566;27.820;2023-06-26T07:49:10;8.75;;;7.85;;
9904;SDS011;4991;43.566;27.820;2023-06-26T07:51:36;9.45;;;8.00;;
9904;SDS011;4991;43.566;27.820;2023-06-26T07:54:02;8.70;;;7.80;;
9904;SDS011;4991;43.566;27.820;2023-06-26T07:56:28;8.98;;;8.10;;
9904;SDS011;4991;43.566;27.820;2023-06-26T07:58:54;10.45;;;7.63;;
9904;SDS011;4991;43.566;27.820;2023-06-26T08:01:20;11.10;;;8.32;;
9904;SDS011;4991;43.566;27.820;2023-06-26T08:03:45;9.82;;;7.90;;
9904;SDS011;4991;43.566;27.820;2023-06-26T08:06:11;10.90;;;8.10;;
9904;SDS011;4991;43.566;27.820;2023-06-26T08:08:36;9.27;;;7.55;;
9904;SDS011;4991;43.566;27.820;2023-06-26T08:11:02;9.75;;;7.60;;
9904;SDS011;4991;43.566;27.820;2023-06-26T08:13:28;8.35;;;7.40;;
9904;SDS011;4991;43.566;27.820;2023-06-26T08:15:54;9.13;;;7.80;;
9904;SDS011;4991;43.566;27.820;2023-06-26T08:18:19;8.50;;;7.70;;
9904;SDS011;4991;43.566;27.820;2023-06-26T08:20:45;9.73;;;7.82;;
9904;SDS011;4991;43.566;27.820;2023-06-26T08:23:11;10.38;;;7.55;;
9904;SDS011;4991;43.566;27.820;2023-06-26T08:25:36;8.45;;;7.00;;
9904;SDS011;4991;43.566;27.820;2023-06-26T08:28:02;8.45;;;6.93;;
9904;SDS011;4991;43.566;27.820;2023-06-26T08:30:28;9.23;;;6.43;;
9904;SDS011;4991;43.566;27.820;2023-06-26T08:32:56;7.80;;;6.50;;
9904;SDS011;4991;43.566;27.820;2023-06-26T08:35:22;11.60;;;6.88;;
9904;SDS011;4991;43.566;27.820;2023-06-26T08:37:48;9.40;;;6.78;;
9904;SDS011;4991;43.566;27.820;2023-06-26T08:40:20;9.90;;;6.93;;
9904;SDS011;4991;43.566;27.820;2023-06-26T08:42:47;7.35;;;6.65;;
9904;SDS011;4991;43.566;27.820;2023-06-26T08:45:17;7.72;;;6.47;;
9904;SDS011;4991;43.566;27.820;2023-06-26T08:47:44;8.55;;;6.13;;
9904;SDS011;4991;43.566;27.820;2023-06-26T08:50:12;6.53;;;5.93;;
9904;SDS011;4991;43.566;27.820;2023-06-26T08:55:24;6.53;;;5.63;;
9904;SDS011;4991;43.566;27.820;2023-06-26T08:57:52;8.25;;;5.72;;
9904;SDS011;4991;43.566;27.820;2023-06-26T09:00:18;7.15;;;6.45;;
9904;SDS011;4991;43.566;27.820;2023-06-26T09:02:45;6.93;;;6.10;;
9904;SDS011;4991;43.566;27.820;2023-06-26T09:05:11;7.75;;;6.03;;
9904;SDS011;4991;43.566;27.820;2023-06-26T09:07:37;8.68;;;5.93;;
9904;SDS011;4991;43.566;27.820;2023-06-26T09:10:02;7.53;;;5.20;;
9904;SDS011;4991;43.566;27.820;2023-06-26T09:12:28;6.15;;;4.95;;
9904;SDS011;4991;43.566;27.820;2023-06-26T09:14:56;8.23;;;5.60;;
9904;SDS011;4991;43.566;27.820;2023-06-26T09:17:25;6.75;;;5.20;;
9904;SDS011;4991;43.566;27.820;2023-06-26T09:19:54;6.82;;;4.72;;
9904;SDS011;4991;43.566;27.820;2023-06-26T09:22:20;5.60;;;4.60;;
9904;SDS011;4991;43.566;27.820;2023-06-26T09:24:48;5.47;;;4.72;;
9904;SDS011;4991;43.566;27.820;2023-06-26T09:27:13;5.32;;;4.35;;
9904;SDS011;4991;43.566;27.820;2023-06-26T09:29:39;6.90;;;4.80;;
9904;SDS011;4991;43.566;27.820;2023-06-26T09:32:08;7.97;;;3.75;;
9904;SDS011;4991;43.566;27.820;2023-06-26T09:34:40;4.10;;;3.58;;
9904;SDS011;4991;43.566;27.820;2023-06-26T09:37:11;4.90;;;4.40;;
9904;SDS011;4991;43.566;27.820;2023-06-26T09:39:37;6.88;;;4.15;;
9904;SDS011;4991;43.566;27.820;2023-06-26T09:42:03;4.63;;;3.83;;
9904;SDS011;4991;43.566;27.820;2023-06-26T09:44:30;5.85;;;3.88;;
9904;SDS011;4991;43.566;27.820;2023-06-26T09:47:00;5.55;;;4.43;;
9904;SDS011;4991;43.566;27.820;2023-06-26T09:49:28;5.63;;;4.65;;
9904;SDS011;4991;43.566;27.820;2023-06-26T09:51:54;4.53;;;4.13;;
9904;SDS011;4991;43.566;27.820;2023-06-26T09:54:21;5.68;;;4.70;;
9904;SDS011;4991;43.566;27.820;2023-06-26T09:56:48;4.72;;;4.22;;
9904;SDS011;4991;43.566;27.820;2023-06-26T09:59:14;4.65;;;4.03;;
9904;SDS011;4991;43.566;27.820;2023-06-26T10:01:41;4.40;;;4.00;;
9904;SDS011;4991;43.566;27.820;2023-06-26T10:04:12;5.35;;;4.18;;
9904;SDS011;4991;43.566;27.820;2023-06-26T10:06:41;5.57;;;4.07;;
9904;SDS011;4991;43.566;27.820;2023-06-26T10:09:16;6.25;;;4.68;;
9904;SDS011;4991;43.566;27.820;2023-06-26T10:11:47;5.28;;;3.90;;
9904;SDS011;4991;43.566;27.820;2023-06-26T10:14:21;5.00;;;4.22;;
9904;SDS011;4991;43.566;27.820;2023-06-26T10:16:48;5.75;;;4.10;;
9904;SDS011;4991;43.566;27.820;2023-06-26T10:19:16;4.72;;;4.13;;
9904;SDS011;4991;43.566;27.820;2023-06-26T10:21:50;6.95;;;4.68;;
9904;SDS011;4991;43.566;27.820;2023-06-26T10:24:18;4.88;;;4.45;;
9904;SDS011;4991;43.566;27.820;2023-06-26T10:26:46;6.05;;;4.90;;
9904;SDS011;4991;43.566;27.820;2023-06-26T10:29:18;5.50;;;4.65;;
9904;SDS011;4991;43.566;27.820;2023-06-26T10:31:48;8.20;;;5.10;;
9904;SDS011;4991;43.566;27.820;2023-06-26T10:34:16;5.97;;;4.68;;
9904;SDS011;4991;43.566;27.820;2023-06-26T10:36:43;6.72;;;4.15;;
9904;SDS011;4991;43.566;27.820;2023-06-26T10:39:08;6.82;;;3.15;;
9904;SDS011;4991;43.566;27.820;2023-06-26T10:41:38;3.70;;;3.40;;
9904;SDS011;4991;43.566;27.820;2023-06-26T10:47:32;4.30;;;3.90;;
9904;SDS011;4991;43.566;27.820;2023-06-26T10:53:08;6.20;;;4.40;;
9904;SDS011;4991;43.566;27.820;2023-06-26T10:56:00;4.07;;;3.67;;
9904;SDS011;4991;43.566;27.820;2023-06-26T11:01:22;6.05;;;4.60;;
9904;SDS011;4991;43.566;27.820;2023-06-26T11:06:28;4.72;;;4.00;;
9904;SDS011;4991;43.566;27.820;2023-06-26T11:09:06;4.45;;;4.05;;
9904;SDS011;4991;43.566;27.820;2023-06-26T11:14:21;8.73;;;4.85;;
9904;SDS011;4991;43.566;27.820;2023-06-26T11:16:50;9.35;;;4.45;;
9904;SDS011;4991;43.566;27.820;2023-06-26T11:19:16;5.60;;;3.70;;
9904;SDS011;4991;43.566;27.820;2023-06-26T11:21:43;4.38;;;3.97;;
9904;SDS011;4991;43.566;27.820;2023-06-26T11:24:12;4.32;;;3.92;;
9904;SDS011;4991;43.566;27.820;2023-06-26T11:26:39;6.10;;;4.10;;
9904;SDS011;4991;43.566;27.820;2023-06-26T11:29:06;7.20;;;3.88;;
9904;SDS011;4991;43.566;27.820;2023-06-26T11:31:34;3.63;;;3.33;;
9904;SDS011;4991;43.566;27.820;2023-06-26T11:34:03;4.45;;;4.03;;
9904;SDS011;4991;43.566;27.820;2023-06-26T11:36:33;4.45;;;3.60;;
9904;SDS011;4991;43.566;27.820;2023-06-26T11:39:02;6.10;;;3.22;;
9904;SDS011;4991;43.566;27.820;2023-06-26T11:41:33;6.28;;;3.65;;
9904;SDS011;4991;43.566;27.820;2023-06-26T11:44:03;4.32;;;3.92;;
9904;SDS011;4991;43.566;27.820;2023-06-26T11:46:32;5.43;;;3.88;;
9904;SDS011;4991;43.566;27.820;2023-06-26T11:49:03;5.18;;;3.13;;
9904;SDS011;4991;43.566;27.820;2023-06-26T11:51:31;5.18;;;3.75;;
9904;SDS011;4991;43.566;27.820;2023-06-26T11:54:00;4.30;;;3.70;;
9904;SDS011;4991;43.566;27.820;2023-06-26T11:56:28;5.90;;;3.63;;
9904;SDS011;4991;43.566;27.820;2023-06-26T12:01:45;4.60;;;3.55;;
9904;SDS011;4991;43.566;27.820;2023-06-26T12:04:12;4.50;;;3.33;;
9904;SDS011;4991;43.566;27.820;2023-06-26T12:06:42;3.70;;;3.10;;
9904;SDS011;4991;43.566;27.820;2023-06-26T12:09:12;7.20;;;3.97;;
9904;SDS011;4991;43.566;27.820;2023-06-26T12:11:42;4.13;;;3.63;;
9904;SDS011;4991;43.566;27.820;2023-06-26T12:14:10;5.28;;;3.80;;
9904;SDS011;4991;43.566;27.820;2023-06-26T12:16:36;3.95;;;3.55;;
9904;SDS011;4991;43.566;27.820;2023-06-26T12:19:06;4.05;;;3.13;;
9904;SDS011;4991;43.566;27.820;2023-06-26T12:24:02;4.25;;;3.60;;
9904;SDS011;4991;43.566;27.820;2023-06-26T12:26:28;5.60;;;3.40;;
9904;SDS011;4991;43.566;27.820;2023-06-26T12:29:14;7.05;;;3.22;;
9904;SDS011;4991;43.566;27.820;2023-06-26T12:31:44;4.18;;;3.78;;
9904;SDS011;4991;43.566;27.820;2023-06-26T12:34:12;8.82;;;3.33;;
9904;SDS011;4991;43.566;27.820;2023-06-26T12:36:47;3.80;;;3.42;;
9904;SDS011;4991;43.566;27.820;2023-06-26T12:39:17;5.07;;;4.20;;
9904;SDS011;4991;43.566;27.820;2023-06-26T12:47:01;4.50;;;3.63;;
9904;SDS011;4991;43.566;27.820;2023-06-26T12:49:35;7.72;;;3.63;;
9904;SDS011;4991;43.566;27.820;2023-06-26T12:52:02;8.63;;;3.60;;
9904;SDS011;4991;43.566;27.820;2023-06-26T12:54:30;4.05;;;3.65;;
9904;SDS011;4991;43.566;27.820;2023-06-26T12:56:57;4.10;;;3.80;;
9904;SDS011;4991;43.566;27.820;2023-06-26T12:59:23;3.55;;;3.20;;
9904;SDS011;4991;43.566;27.820;2023-06-26T13:01:49;4.28;;;3.72;;
9904;SDS011;4991;43.566;27.820;2023-06-26T13:04:16;3.53;;;3.22;;
9904;SDS011;4991;43.566;27.820;2023-06-26T13:06:41;4.45;;;3.30;;
9904;SDS011;4991;43.566;27.820;2023-06-26T13:09:07;5.38;;;3.67;;
9904;SDS011;4991;43.566;27.820;2023-06-26T13:11:34;5.47;;;3.28;;
9904;SDS011;4991;43.566;27.820;2023-06-26T13:14:01;3.42;;;3.13;;
9904;SDS011;4991;43.566;27.820;2023-06-26T13:16:27;8.00;;;3.80;;
9904;SDS011;4991;43.566;27.820;2023-06-26T13:18:53;6.13;;;3.80;;
9904;SDS011;4991;43.566;27.820;2023-06-26T13:21:19;4.50;;;3.95;;
9904;SDS011;4991;43.566;27.820;2023-06-26T13:23:44;4.30;;;3.35;;
9904;SDS011;4991;43.566;27.820;2023-06-26T13:26:10;4.47;;;3.40;;
9904;SDS011;4991;43.566;27.820;2023-06-26T13:28:36;6.57;;;3.67;;
9904;SDS011;4991;43.566;27.820;2023-06-26T13:31:03;4.15;;;3.38;;
9904;SDS011;4991;43.566;27.820;2023-06-26T13:33:29;3.83;;;3.30;;
9904;SDS011;4991;43.566;27.820;2023-06-26T13:35:55;6.72;;;3.40;;
9904;SDS011;4991;43.566;27.820;2023-06-26T13:38:21;3.72;;;3.20;;
9904;SDS011;4991;43.566;27.820;2023-06-26T13:40:54;3.55;;;3.17;;
9904;SDS011;4991;43.566;27.820;2023-06-26T13:43:20;5.57;;;3.45;;
9904;SDS011;4991;43.566;27.820;2023-06-26T13:45:47;5.03;;;3.40;;
9904;SDS011;4991;43.566;27.820;2023-06-26T13:48:13;4.40;;;3.78;;
9904;SDS011;4991;43.566;27.820;2023-06-26T13:50:39;4.38;;;3.60;;
9904;SDS011;4991;43.566;27.820;2023-06-26T13:53:04;5.70;;;3.20;;
9904;SDS011;4991;43.566;27.820;2023-06-26T13:55:31;5.78;;;3.60;;
9904;SDS011;4991;43.566;27.820;2023-06-26T13:57:58;5.90;;;3.78;;
9904;SDS011;4991;43.566;27.820;2023-06-26T14:00:24;3.72;;;3.00;;
9904;SDS011;4991;43.566;27.820;2023-06-26T14:02:50;3.33;;;3.03;;
9904;SDS011;4991;43.566;27.820;2023-06-26T14:05:17;5.55;;;3.70;;
9904;SDS011;4991;43.566;27.820;2023-06-26T14:07:44;5.15;;;3.30;;
9904;SDS011;4991;43.566;27.820;2023-06-26T14:10:10;4.88;;;3.22;;
9904;SDS011;4991;43.566;27.820;2023-06-26T14:12:37;4.97;;;3.28;;
9904;SDS011;4991;43.566;27.820;2023-06-26T14:15:04;5.25;;;3.60;;
9904;SDS011;4991;43.566;27.820;2023-06-26T14:17:30;4.45;;;3.33;;
9904;SDS011;4991;43.566;27.820;2023-06-26T14:19:55;6.45;;;3.60;;
9904;SDS011;4991;43.566;27.820;2023-06-26T14:22:22;3.40;;;3.10;;
9904;SDS011;4991;43.566;27.820;2023-06-26T14:24:48;3.30;;;3.03;;
9904;SDS011;4991;43.566;27.820;2023-06-26T14:27:15;3.63;;;3.33;;
9904;SDS011;4991;43.566;27.820;2023-06-26T14:29:40;6.07;;;3.47;;
9904;SDS011;4991;43.566;27.820;2023-06-26T14:32:08;3.78;;;3.35;;
9904;SDS011;4991;43.566;27.820;2023-06-26T14:34:33;3.65;;;3.15;;
9904;SDS011;4991;43.566;27.820;2023-06-26T14:36:59;4.35;;;3.38;;
9904;SDS011;4991;43.566;27.820;2023-06-26T14:39:25;5.47;;;3.55;;
9904;SDS011;4991;43.566;27.820;2023-06-26T14:41:51;3.55;;;3.25;;
9904;SDS011;4991;43.566;27.820;2023-06-26T14:44:16;4.45;;;3.47;;
9904;SDS011;4991;43.566;27.820;2023-06-26T14:46:42;3.50;;;2.95;;
9904;SDS011;4991;43.566;27.820;2023-06-26T14:49:08;3.30;;;3.00;;
9904;SDS011;4991;43.566;27.820;2023-06-26T14:51:34;5.28;;;3.30;;
9904;SDS011;4991;43.566;27.820;2023-06-26T14:54:00;3.70;;;3.40;;
9904;SDS011;4991;43.566;27.820;2023-06-26T14:56:26;5.63;;;3.00;;
9904;SDS011;4991;43.566;27.820;2023-06-26T14:58:51;4.05;;;3.22;;
9904;SDS011;4991;43.566;27.820;2023-06-26T15:01:18;3.50;;;3.20;;
9904;SDS011;4991;43.566;27.820;2023-06-26T15:03:45;3.33;;;2.90;;
9904;SDS011;4991;43.566;27.820;2023-06-26T15:06:11;3.60;;;3.08;;
9904;SDS011;4991;43.566;27.820;2023-06-26T15:08:37;4.75;;;3.53;;
9904;SDS011;4991;43.566;27.820;2023-06-26T15:11:03;8.50;;;3.15;;
9904;SDS011;4991;43.566;27.820;2023-06-26T15:13:28;7.43;;;3.30;;
9904;SDS011;4991;43.566;27.820;2023-06-26T15:15:54;3.85;;;2.70;;
9904;SDS011;4991;43.566;27.820;2023-06-26T15:18:20;5.38;;;3.13;;
9904;SDS011;4991;43.566;27.820;2023-06-26T15:20:45;3.53;;;3.05;;
9904;SDS011;4991;43.566;27.820;2023-06-26T15:23:11;6.13;;;3.20;;
9904;SDS011;4991;43.566;27.820;2023-06-26T15:25:37;10.20;;;3.33;;